sensor_id;sensor_type;location;lat;lon;timestamp;P1;durP1;ratioP1;P2;durP2;ratioP2
11522;SDS011;70090;43.208;27.904;2024-02-23T00:00:59;31.10;;;23.80;;
11522;SDS011;70090;43.208;27.904;2024-02-23T00:03:26;30.77;;;24.20;;
11522;SDS011;70090;43.208;27.904;2024-02-23T00:05:54;28.83;;;23.30;;
11522;SDS011;70090;43.208;27.904;2024-02-23T00:08:22;30.07;;;23.53;;
11522;SDS011;70090;43.208;27.904;2024-02-23T00:10:49;29.60;;;23.37;;
11522;SDS011;70090;43.208;27.904;2024-02-23T00:13:16;28.73;;;23.30;;
11522;SDS011;70090;43.208;27.904;2024-02-23T00:15:43;27.43;;;22.97;;
11522;SDS011;70090;43.208;27.904;2024-02-23T00:18:10;26.67;;;20.13;;
11522;SDS011;70090;43.208;27.904;2024-02-23T00:20:38;28.17;;;21.37;;
11522;SDS011;70090;43.208;27.904;2024-02-23T00:23:05;24.23;;;20.40;;
11522;SDS011;70090;43.208;27.904;2024-02-23T00:25:33;21.97;;;17.63;;
11522;SDS011;70090;43.208;27.904;2024-02-23T00:28:00;25.43;;;20.90;;
11522;SDS011;70090;43.208;27.904;2024-02-23T00:30:27;25.30;;;19.90;;
11522;SDS011;70090;43.208;27.904;2024-02-23T00:32:54;28.17;;;21.77;;
11522;SDS011;70090;43.208;27.904;2024-02-23T00:35:21;23.50;;;19.47;;
11522;SDS011;70090;43.208;27.904;2024-02-23T00:37:49;23.93;;;20.07;;
11522;SDS011;70090;43.208;27.904;2024-02-23T00:40:16;25.40;;;20.63;;
11522;SDS011;70090;43.208;27.904;2024-02-23T00:42:44;23.57;;;20.57;;
11522;SDS011;70090;43.208;27.904;2024-02-23T00:45:11;24.10;;;20.27;;
11522;SDS011;70090;43.208;27.904;2024-02-23T00:47:38;23.60;;;20.47;;
11522;SDS011;70090;43.208;27.904;2024-02-23T00:50:05;23.50;;;19.97;;
11522;SDS011;70090;43.208;27.904;2024-02-23T00:52:33;23.00;;;20.17;;
11522;SDS011;70090;43.208;27.904;2024-02-23T00:55:00;24.97;;;20.47;;
11522;SDS011;70090;43.208;27.904;2024-02-23T00:57:27;25.17;;;20.63;;
11522;SDS011;70090;43.208;27.904;2024-02-23T00:59:56;23.07;;;19.43;;
11522;SDS011;70090;43.208;27.904;2024-02-23T01:02:24;24.53;;;20.03;;
11522;SDS011;70090;43.208;27.904;2024-02-23T01:04:51;22.77;;;17.73;;
11522;SDS011;70090;43.208;27.904;2024-02-23T01:07:22;22.77;;;19.07;;
11522;SDS011;70090;43.208;27.904;2024-02-23T01:09:49;24.33;;;19.83;;
11522;SDS011;70090;43.208;27.904;2024-02-23T01:12:16;25.03;;;19.97;;
11522;SDS011;70090;43.208;27.904;2024-02-23T01:14:43;25.40;;;20.07;;
11522;SDS011;70090;43.208;27.904;2024-02-23T01:17:11;25.60;;;21.03;;
11522;SDS011;70090;43.208;27.904;2024-02-23T01:19:38;25.20;;;20.17;;
11522;SDS011;70090;43.208;27.904;2024-02-23T01:22:07;25.13;;;19.97;;
11522;SDS011;70090;43.208;27.904;2024-02-23T01:24:34;26.43;;;21.33;;
11522;SDS011;70090;43.208;27.904;2024-02-23T01:27:01;26.03;;;21.97;;
11522;SDS011;70090;43.208;27.904;2024-02-23T01:29:29;24.60;;;19.97;;
11522;SDS011;70090;43.208;27.904;2024-02-23T01:31:56;26.77;;;20.83;;
11522;SDS011;70090;43.208;27.904;2024-02-23T01:34:24;24.23;;;20.00;;
11522;SDS011;70090;43.208;27.904;2024-02-23T01:36:51;23.50;;;20.20;;
11522;SDS011;70090;43.208;27.904;2024-02-23T01:39:18;24.30;;;19.83;;
11522;SDS011;70090;43.208;27.904;2024-02-23T01:41:45;24.03;;;20.13;;
11522;SDS011;70090;43.208;27.904;2024-02-23T01:44:12;23.70;;;20.37;;
11522;SDS011;70090;43.208;27.904;2024-02-23T01:46:40;23.57;;;19.80;;
11522;SDS011;70090;43.208;27.904;2024-02-23T01:49:09;24.57;;;20.23;;
11522;SDS011;70090;43.208;27.904;2024-02-23T01:51:38;22.93;;;19.63;;
11522;SDS011;70090;43.208;27.904;2024-02-23T01:54:05;22.73;;;20.07;;
11522;SDS011;70090;43.208;27.904;2024-02-23T01:56:32;22.33;;;19.40;;
11522;SDS011;70090;43.208;27.904;2024-02-23T01:59:01;23.63;;;19.73;;
11522;SDS011;70090;43.208;27.904;2024-02-23T02:01:30;25.03;;;20.57;;
11522;SDS011;70090;43.208;27.904;2024-02-23T02:03:57;23.60;;;19.77;;
11522;SDS011;70090;43.208;27.904;2024-02-23T02:06:25;22.70;;;19.00;;
11522;SDS011;70090;43.208;27.904;2024-02-23T02:08:53;23.67;;;19.37;;
11522;SDS011;70090;43.208;27.904;2024-02-23T02:11:20;24.90;;;19.70;;
11522;SDS011;70090;43.208;27.904;2024-02-23T02:13:47;24.33;;;20.33;;
11522;SDS011;70090;43.208;27.904;2024-02-23T02:16:14;25.13;;;20.63;;
11522;SDS011;70090;43.208;27.904;2024-02-23T02:18:41;23.50;;;20.03;;
11522;SDS011;70090;43.208;27.904;2024-02-23T02:21:09;23.80;;;19.93;;
11522;SDS011;70090;43.208;27.904;2024-02-23T02:23:36;24.93;;;20.57;;
11522;SDS011;70090;43.208;27.904;2024-02-23T02:26:05;25.47;;;20.83;;
11522;SDS011;70090;43.208;27.904;2024-02-23T02:28:32;24.83;;;19.10;;
11522;SDS011;70090;43.208;27.904;2024-02-23T02:30:59;25.57;;;20.13;;
11522;SDS011;70090;43.208;27.904;2024-02-23T02:33:26;23.20;;;20.07;;
11522;SDS011;70090;43.208;27.904;2024-02-23T02:35:53;25.07;;;20.17;;
11522;SDS011;70090;43.208;27.904;2024-02-23T02:38:20;23.17;;;20.20;;
11522;SDS011;70090;43.208;27.904;2024-02-23T02:40:47;25.30;;;20.63;;
11522;SDS011;70090;43.208;27.904;2024-02-23T02:43:16;25.47;;;20.70;;
11522;SDS011;70090;43.208;27.904;2024-02-23T02:45:43;25.73;;;20.33;;
11522;SDS011;70090;43.208;27.904;2024-02-23T02:48:10;26.63;;;20.63;;
11522;SDS011;70090;43.208;27.904;2024-02-23T02:50:37;23.37;;;19.93;;
11522;SDS011;70090;43.208;27.904;2024-02-23T02:53:04;26.30;;;21.23;;
11522;SDS011;70090;43.208;27.904;2024-02-23T02:55:31;25.60;;;20.47;;
11522;SDS011;70090;43.208;27.904;2024-02-23T02:57:58;24.87;;;20.70;;
11522;SDS011;70090;43.208;27.904;2024-02-23T03:00:27;24.40;;;21.20;;
11522;SDS011;70090;43.208;27.904;2024-02-23T03:02:56;23.83;;;20.27;;
11522;SDS011;70090;43.208;27.904;2024-02-23T03:05:23;24.67;;;20.10;;
11522;SDS011;70090;43.208;27.904;2024-02-23T03:07:50;24.00;;;20.47;;
11522;SDS011;70090;43.208;27.904;2024-02-23T03:10:17;23.20;;;20.63;;
11522;SDS011;70090;43.208;27.904;2024-02-23T03:12:44;24.43;;;20.17;;
11522;SDS011;70090;43.208;27.904;2024-02-23T03:15:11;24.97;;;20.20;;
11522;SDS011;70090;43.208;27.904;2024-02-23T03:17:39;24.50;;;20.67;;
11522;SDS011;70090;43.208;27.904;2024-02-23T03:20:06;25.10;;;20.90;;
11522;SDS011;70090;43.208;27.904;2024-02-23T03:22:34;22.83;;;20.07;;
11522;SDS011;70090;43.208;27.904;2024-02-23T03:25:01;24.93;;;20.40;;
11522;SDS011;70090;43.208;27.904;2024-02-23T03:27:33;24.13;;;20.33;;
11522;SDS011;70090;43.208;27.904;2024-02-23T03:30:02;23.67;;;19.50;;
11522;SDS011;70090;43.208;27.904;2024-02-23T03:32:29;27.03;;;20.80;;
11522;SDS011;70090;43.208;27.904;2024-02-23T03:35:03;25.23;;;21.53;;
11522;SDS011;70090;43.208;27.904;2024-02-23T03:37:30;27.10;;;22.47;;
11522;SDS011;70090;43.208;27.904;2024-02-23T03:39:57;25.97;;;22.00;;
11522;SDS011;70090;43.208;27.904;2024-02-23T03:42:25;26.03;;;22.27;;
11522;SDS011;70090;43.208;27.904;2024-02-23T03:44:52;25.93;;;21.27;;
11522;SDS011;70090;43.208;27.904;2024-02-23T03:47:19;25.97;;;21.53;;
11522;SDS011;70090;43.208;27.904;2024-02-23T03:49:46;26.20;;;21.93;;
11522;SDS011;70090;43.208;27.904;2024-02-23T03:52:15;26.07;;;20.80;;
11522;SDS011;70090;43.208;27.904;2024-02-23T03:54:42;24.60;;;21.03;;
11522;SDS011;70090;43.208;27.904;2024-02-23T03:57:09;26.83;;;21.97;;
11522;SDS011;70090;43.208;27.904;2024-02-23T03:59:36;25.97;;;21.60;;
11522;SDS011;70090;43.208;27.904;2024-02-23T04:02:04;27.20;;;20.87;;
11522;SDS011;70090;43.208;27.904;2024-02-23T04:04:31;27.07;;;22.03;;
11522;SDS011;70090;43.208;27.904;2024-02-23T04:06:58;28.33;;;21.70;;
11522;SDS011;70090;43.208;27.904;2024-02-23T04:09:26;28.13;;;21.93;;
11522;SDS011;70090;43.208;27.904;2024-02-23T04:11:54;25.40;;;21.40;;
11522;SDS011;70090;43.208;27.904;2024-02-23T04:14:21;27.83;;;22.73;;
11522;SDS011;70090;43.208;27.904;2024-02-23T04:16:48;28.00;;;22.97;;
11522;SDS011;70090;43.208;27.904;2024-02-23T04:19:15;28.83;;;23.20;;
11522;SDS011;70090;43.208;27.904;2024-02-23T04:21:42;36.10;;;26.70;;
11522;SDS011;70090;43.208;27.904;2024-02-23T04:24:09;36.43;;;28.27;;
11522;SDS011;70090;43.208;27.904;2024-02-23T04:26:37;36.73;;;27.03;;
11522;SDS011;70090;43.208;27.904;2024-02-23T04:29:04;34.60;;;27.43;;
11522;SDS011;70090;43.208;27.904;2024-02-23T04:31:31;34.13;;;25.83;;
11522;SDS011;70090;43.208;27.904;2024-02-23T04:33:58;30.57;;;24.43;;
11522;SDS011;70090;43.208;27.904;2024-02-23T04:36:25;28.63;;;24.47;;
11522;SDS011;70090;43.208;27.904;2024-02-23T04:38:52;30.27;;;24.77;;
11522;SDS011;70090;43.208;27.904;2024-02-23T04:41:19;29.40;;;24.13;;
11522;SDS011;70090;43.208;27.904;2024-02-23T04:43:49;28.13;;;23.60;;
11522;SDS011;70090;43.208;27.904;2024-02-23T04:46:17;29.33;;;23.80;;
11522;SDS011;70090;43.208;27.904;2024-02-23T04:48:44;27.93;;;24.23;;
11522;SDS011;70090;43.208;27.904;2024-02-23T04:51:11;28.63;;;23.63;;
11522;SDS011;70090;43.208;27.904;2024-02-23T04:53:38;30.27;;;22.83;;
11522;SDS011;70090;43.208;27.904;2024-02-23T04:56:05;30.67;;;23.83;;
11522;SDS011;70090;43.208;27.904;2024-02-23T04:58:32;28.10;;;23.37;;
11522;SDS011;70090;43.208;27.904;2024-02-23T05:01:01;30.33;;;23.37;;
11522;SDS011;70090;43.208;27.904;2024-02-23T05:03:28;32.43;;;25.30;;
11522;SDS011;70090;43.208;27.904;2024-02-23T05:05:55;32.67;;;25.60;;
11522;SDS011;70090;43.208;27.904;2024-02-23T05:08:23;34.00;;;26.20;;
11522;SDS011;70090;43.208;27.904;2024-02-23T05:10:51;32.70;;;26.17;;
11522;SDS011;70090;43.208;27.904;2024-02-23T05:13:18;33.50;;;26.30;;
11522;SDS011;70090;43.208;27.904;2024-02-23T05:15:46;34.00;;;26.87;;
11522;SDS011;70090;43.208;27.904;2024-02-23T05:18:14;32.77;;;25.97;;
11522;SDS011;70090;43.208;27.904;2024-02-23T05:20:42;32.07;;;26.03;;
11522;SDS011;70090;43.208;27.904;2024-02-23T05:23:09;34.57;;;27.00;;
11522;SDS011;70090;43.208;27.904;2024-02-23T05:25:36;34.37;;;26.63;;
11522;SDS011;70090;43.208;27.904;2024-02-23T05:28:04;34.70;;;26.27;;
11522;SDS011;70090;43.208;27.904;2024-02-23T05:30:31;38.90;;;27.57;;
11522;SDS011;70090;43.208;27.904;2024-02-23T05:32:58;34.93;;;26.93;;
11522;SDS011;70090;43.208;27.904;2024-02-23T05:35:29;33.50;;;26.87;;
11522;SDS011;70090;43.208;27.904;2024-02-23T05:37:57;29.67;;;24.87;;
11522;SDS011;70090;43.208;27.904;2024-02-23T05:40:24;31.03;;;25.87;;
11522;SDS011;70090;43.208;27.904;2024-02-23T05:42:51;31.97;;;25.63;;
11522;SDS011;70090;43.208;27.904;2024-02-23T05:45:18;30.13;;;24.97;;
11522;SDS011;70090;43.208;27.904;2024-02-23T05:47:45;33.10;;;25.20;;
11522;SDS011;70090;43.208;27.904;2024-02-23T05:50:12;35.43;;;25.00;;
11522;SDS011;70090;43.208;27.904;2024-02-23T05:52:40;32.73;;;25.77;;
11522;SDS011;70090;43.208;27.904;2024-02-23T05:55:07;32.30;;;24.83;;
11522;SDS011;70090;43.208;27.904;2024-02-23T05:57:35;32.83;;;24.80;;
11522;SDS011;70090;43.208;27.904;2024-02-23T06:00:02;38.47;;;26.03;;
11522;SDS011;70090;43.208;27.904;2024-02-23T06:02:30;32.77;;;24.93;;
11522;SDS011;70090;43.208;27.904;2024-02-23T06:04:57;31.63;;;25.00;;
11522;SDS011;70090;43.208;27.904;2024-02-23T06:07:24;28.47;;;24.70;;
11522;SDS011;70090;43.208;27.904;2024-02-23T06:09:55;28.77;;;24.50;;
11522;SDS011;70090;43.208;27.904;2024-02-23T06:12:23;30.93;;;23.97;;
11522;SDS011;70090;43.208;27.904;2024-02-23T06:14:50;30.23;;;24.17;;
11522;SDS011;70090;43.208;27.904;2024-02-23T06:17:17;29.20;;;22.93;;
11522;SDS011;70090;43.208;27.904;2024-02-23T06:19:45;30.57;;;24.17;;
11522;SDS011;70090;43.208;27.904;2024-02-23T06:22:12;29.40;;;24.13;;
11522;SDS011;70090;43.208;27.904;2024-02-23T06:24:42;30.03;;;23.37;;
11522;SDS011;70090;43.208;27.904;2024-02-23T06:27:10;30.03;;;22.80;;
11522;SDS011;70090;43.208;27.904;2024-02-23T06:29:37;29.03;;;22.40;;
11522;SDS011;70090;43.208;27.904;2024-02-23T06:32:05;26.53;;;21.47;;
11522;SDS011;70090;43.208;27.904;2024-02-23T06:34:33;23.63;;;20.13;;
11522;SDS011;70090;43.208;27.904;2024-02-23T06:37:00;24.63;;;20.20;;
11522;SDS011;70090;43.208;27.904;2024-02-23T06:39:28;24.40;;;19.43;;
11522;SDS011;70090;43.208;27.904;2024-02-23T06:41:55;25.03;;;19.87;;
11522;SDS011;70090;43.208;27.904;2024-02-23T06:44:24;23.50;;;20.03;;
11522;SDS011;70090;43.208;27.904;2024-02-23T06:46:51;24.97;;;19.37;;
11522;SDS011;70090;43.208;27.904;2024-02-23T06:49:18;22.63;;;19.40;;
11522;SDS011;70090;43.208;27.904;2024-02-23T06:51:45;26.70;;;20.60;;
11522;SDS011;70090;43.208;27.904;2024-02-23T06:54:12;23.10;;;19.20;;
11522;SDS011;70090;43.208;27.904;2024-02-23T06:56:39;22.03;;;19.03;;
11522;SDS011;70090;43.208;27.904;2024-02-23T06:59:06;22.63;;;18.90;;
11522;SDS011;70090;43.208;27.904;2024-02-23T07:01:34;22.00;;;18.67;;
11522;SDS011;70090;43.208;27.904;2024-02-23T07:04:02;21.40;;;18.60;;
11522;SDS011;70090;43.208;27.904;2024-02-23T07:06:29;23.57;;;18.33;;
11522;SDS011;70090;43.208;27.904;2024-02-23T07:08:57;21.37;;;18.80;;
11522;SDS011;70090;43.208;27.904;2024-02-23T07:11:24;24.17;;;18.63;;
11522;SDS011;70090;43.208;27.904;2024-02-23T07:13:51;21.60;;;19.03;;
11522;SDS011;70090;43.208;27.904;2024-02-23T07:16:18;26.90;;;19.67;;
11522;SDS011;70090;43.208;27.904;2024-02-23T07:18:46;26.10;;;19.73;;
11522;SDS011;70090;43.208;27.904;2024-02-23T07:21:13;21.87;;;18.80;;
11522;SDS011;70090;43.208;27.904;2024-02-23T07:23:44;22.90;;;19.93;;
11522;SDS011;70090;43.208;27.904;2024-02-23T07:26:11;24.50;;;20.00;;
11522;SDS011;70090;43.208;27.904;2024-02-23T07:28:38;27.93;;;20.60;;
11522;SDS011;70090;43.208;27.904;2024-02-23T07:31:05;26.97;;;20.10;;
11522;SDS011;70090;43.208;27.904;2024-02-23T07:33:32;26.60;;;21.40;;
11522;SDS011;70090;43.208;27.904;2024-02-23T07:36:00;26.57;;;21.43;;
11522;SDS011;70090;43.208;27.904;2024-02-23T07:38:27;28.10;;;21.80;;
11522;SDS011;70090;43.208;27.904;2024-02-23T07:40:54;27.83;;;21.30;;
11522;SDS011;70090;43.208;27.904;2024-02-23T07:43:21;30.73;;;20.50;;
11522;SDS011;70090;43.208;27.904;2024-02-23T07:45:49;24.90;;;20.13;;
11522;SDS011;70090;43.208;27.904;2024-02-23T07:48:16;26.47;;;20.77;;
11522;SDS011;70090;43.208;27.904;2024-02-23T07:50:43;29.03;;;20.93;;
11522;SDS011;70090;43.208;27.904;2024-02-23T07:53:12;29.80;;;21.30;;
11522;SDS011;70090;43.208;27.904;2024-02-23T07:55:39;25.30;;;20.60;;
11522;SDS011;70090;43.208;27.904;2024-02-23T07:58:06;27.47;;;21.30;;
11522;SDS011;70090;43.208;27.904;2024-02-23T08:00:33;26.20;;;20.77;;
11522;SDS011;70090;43.208;27.904;2024-02-23T08:03:03;28.47;;;21.37;;
11522;SDS011;70090;43.208;27.904;2024-02-23T08:05:30;26.63;;;20.60;;
11522;SDS011;70090;43.208;27.904;2024-02-23T08:07:58;24.13;;;19.97;;
11522;SDS011;70090;43.208;27.904;2024-02-23T08:10:26;25.87;;;20.70;;
11522;SDS011;70090;43.208;27.904;2024-02-23T08:12:53;24.00;;;21.37;;
11522;SDS011;70090;43.208;27.904;2024-02-23T08:15:20;24.00;;;20.37;;
11522;SDS011;70090;43.208;27.904;2024-02-23T08:17:47;24.60;;;19.73;;
11522;SDS011;70090;43.208;27.904;2024-02-23T08:20:14;26.63;;;20.10;;
11522;SDS011;70090;43.208;27.904;2024-02-23T08:22:41;25.00;;;20.00;;
11522;SDS011;70090;43.208;27.904;2024-02-23T08:25:09;24.73;;;19.60;;
11522;SDS011;70090;43.208;27.904;2024-02-23T08:27:37;20.00;;;17.63;;
11522;SDS011;70090;43.208;27.904;2024-02-23T08:30:05;20.90;;;18.70;;
11522;SDS011;70090;43.208;27.904;2024-02-23T08:32:33;22.43;;;18.27;;
11522;SDS011;70090;43.208;27.904;2024-02-23T08:35:00;23.83;;;19.50;;
11522;SDS011;70090;43.208;27.904;2024-02-23T08:37:27;22.07;;;18.53;;
11522;SDS011;70090;43.208;27.904;2024-02-23T08:39:54;21.10;;;18.77;;
11522;SDS011;70090;43.208;27.904;2024-02-23T08:42:21;24.40;;;20.63;;
11522;SDS011;70090;43.208;27.904;2024-02-23T08:44:50;27.03;;;21.43;;
11522;SDS011;70090;43.208;27.904;2024-02-23T08:47:19;29.27;;;21.00;;
11522;SDS011;70090;43.208;27.904;2024-02-23T08:49:46;26.57;;;19.90;;
11522;SDS011;70090;43.208;27.904;2024-02-23T08:52:13;23.37;;;19.67;;
11522;SDS011;70090;43.208;27.904;2024-02-23T08:54:40;25.67;;;19.07;;
11522;SDS011;70090;43.208;27.904;2024-02-23T08:57:07;22.80;;;18.83;;
11522;SDS011;70090;43.208;27.904;2024-02-23T08:59:34;22.77;;;18.20;;
11522;SDS011;70090;43.208;27.904;2024-02-23T09:02:03;20.87;;;18.60;;
11522;SDS011;70090;43.208;27.904;2024-02-23T09:04:30;22.90;;;18.57;;
11522;SDS011;70090;43.208;27.904;2024-02-23T09:06:58;24.37;;;19.40;;
11522;SDS011;70090;43.208;27.904;2024-02-23T09:09:25;22.60;;;19.53;;
11522;SDS011;70090;43.208;27.904;2024-02-23T09:11:52;23.57;;;19.07;;
11522;SDS011;70090;43.208;27.904;2024-02-23T09:14:19;26.23;;;20.13;;
11522;SDS011;70090;43.208;27.904;2024-02-23T09:16:46;26.00;;;20.63;;
11522;SDS011;70090;43.208;27.904;2024-02-23T09:19:17;22.87;;;18.93;;
11522;SDS011;70090;43.208;27.904;2024-02-23T09:21:45;22.37;;;18.97;;
11522;SDS011;70090;43.208;27.904;2024-02-23T09:24:12;23.40;;;18.70;;
11522;SDS011;70090;43.208;27.904;2024-02-23T09:26:39;21.20;;;17.90;;
11522;SDS011;70090;43.208;27.904;2024-02-23T09:29:07;28.33;;;19.30;;
11522;SDS011;70090;43.208;27.904;2024-02-23T09:31:34;25.43;;;19.60;;
11522;SDS011;70090;43.208;27.904;2024-02-23T09:34:01;25.97;;;18.67;;
11522;SDS011;70090;43.208;27.904;2024-02-23T09:36:30;24.57;;;19.87;;
11522;SDS011;70090;43.208;27.904;2024-02-23T09:38:57;27.13;;;18.80;;
11522;SDS011;70090;43.208;27.904;2024-02-23T09:41:24;22.67;;;18.57;;
11522;SDS011;70090;43.208;27.904;2024-02-23T09:43:51;28.83;;;19.63;;
11522;SDS011;70090;43.208;27.904;2024-02-23T09:46:19;22.17;;;18.13;;
11522;SDS011;70090;43.208;27.904;2024-02-23T09:48:47;21.23;;;18.13;;
11522;SDS011;70090;43.208;27.904;2024-02-23T09:51:16;23.53;;;18.30;;
11522;SDS011;70090;43.208;27.904;2024-02-23T09:53:44;22.93;;;19.10;;
11522;SDS011;70090;43.208;27.904;2024-02-23T09:56:14;25.57;;;18.90;;
11522;SDS011;70090;43.208;27.904;2024-02-23T09:58:45;19.50;;;17.30;;
11522;SDS011;70090;43.208;27.904;2024-02-23T10:01:14;23.03;;;17.70;;
11522;SDS011;70090;43.208;27.904;2024-02-23T10:03:47;17.93;;;15.50;;
11522;SDS011;70090;43.208;27.904;2024-02-23T10:06:14;15.83;;;14.00;;
11522;SDS011;70090;43.208;27.904;2024-02-23T10:08:41;17.40;;;14.60;;
11522;SDS011;70090;43.208;27.904;2024-02-23T10:11:10;20.40;;;15.23;;
11522;SDS011;70090;43.208;27.904;2024-02-23T10:13:37;22.07;;;16.40;;
11522;SDS011;70090;43.208;27.904;2024-02-23T10:16:05;18.20;;;14.90;;
11522;SDS011;70090;43.208;27.904;2024-02-23T10:18:32;18.83;;;16.33;;
11522;SDS011;70090;43.208;27.904;2024-02-23T10:20:59;24.13;;;15.80;;
11522;SDS011;70090;43.208;27.904;2024-02-23T10:23:26;24.13;;;16.50;;
11522;SDS011;70090;43.208;27.904;2024-02-23T10:25:53;21.20;;;16.93;;
11522;SDS011;70090;43.208;27.904;2024-02-23T10:28:22;20.60;;;15.93;;
11522;SDS011;70090;43.208;27.904;2024-02-23T10:30:49;21.50;;;15.80;;
11522;SDS011;70090;43.208;27.904;2024-02-23T10:33:16;16.93;;;15.13;;
11522;SDS011;70090;43.208;27.904;2024-02-23T10:35:46;18.63;;;14.83;;
11522;SDS011;70090;43.208;27.904;2024-02-23T10:38:14;16.83;;;14.30;;
11522;SDS011;70090;43.208;27.904;2024-02-23T10:40:44;17.50;;;14.90;;
11522;SDS011;70090;43.208;27.904;2024-02-23T10:43:15;15.37;;;13.10;;
11522;SDS011;70090;43.208;27.904;2024-02-23T10:45:47;17.40;;;13.47;;
11522;SDS011;70090;43.208;27.904;2024-02-23T10:48:15;15.73;;;12.47;;
11522;SDS011;70090;43.208;27.904;2024-02-23T10:50:43;16.23;;;14.17;;
11522;SDS011;70090;43.208;27.904;2024-02-23T10:53:10;16.20;;;13.77;;
11522;SDS011;70090;43.208;27.904;2024-02-23T10:55:39;14.50;;;12.67;;
11522;SDS011;70090;43.208;27.904;2024-02-23T10:58:09;16.13;;;12.60;;
11522;SDS011;70090;43.208;27.904;2024-02-23T11:00:39;14.13;;;12.20;;
11522;SDS011;70090;43.208;27.904;2024-02-23T11:03:09;17.30;;;14.03;;
11522;SDS011;70090;43.208;27.904;2024-02-23T11:05:36;15.67;;;14.00;;
11522;SDS011;70090;43.208;27.904;2024-02-23T11:08:05;16.87;;;14.40;;
11522;SDS011;70090;43.208;27.904;2024-02-23T11:10:41;18.10;;;13.97;;
11522;SDS011;70090;43.208;27.904;2024-02-23T11:13:08;17.10;;;14.80;;
11522;SDS011;70090;43.208;27.904;2024-02-23T11:15:35;17.90;;;13.50;;
11522;SDS011;70090;43.208;27.904;2024-02-23T11:18:22;15.00;;;13.40;;
11522;SDS011;70090;43.208;27.904;2024-02-23T11:20:55;14.60;;;13.00;;
11522;SDS011;70090;43.208;27.904;2024-02-23T11:23:25;14.97;;;12.30;;
11522;SDS011;70090;43.208;27.904;2024-02-23T11:25:58;13.47;;;12.07;;
11522;SDS011;70090;43.208;27.904;2024-02-23T11:28:27;13.97;;;12.57;;
11522;SDS011;70090;43.208;27.904;2024-02-23T11:30:54;13.90;;;12.27;;
11522;SDS011;70090;43.208;27.904;2024-02-23T11:33:26;13.17;;;11.70;;
11522;SDS011;70090;43.208;27.904;2024-02-23T11:36:04;14.53;;;13.03;;
11522;SDS011;70090;43.208;27.904;2024-02-23T11:38:32;16.27;;;13.43;;
11522;SDS011;70090;43.208;27.904;2024-02-23T11:40:59;19.00;;;13.80;;
11522;SDS011;70090;43.208;27.904;2024-02-23T11:43:27;16.30;;;14.30;;
11522;SDS011;70090;43.208;27.904;2024-02-23T11:45:54;18.70;;;15.23;;
11522;SDS011;70090;43.208;27.904;2024-02-23T11:48:21;17.80;;;14.70;;
11522;SDS011;70090;43.208;27.904;2024-02-23T11:50:49;17.73;;;14.90;;
11522;SDS011;70090;43.208;27.904;2024-02-23T11:53:17;18.80;;;15.97;;
11522;SDS011;70090;43.208;27.904;2024-02-23T11:55:47;21.87;;;16.10;;
11522;SDS011;70090;43.208;27.904;2024-02-23T11:58:15;20.50;;;15.50;;
11522;SDS011;70090;43.208;27.904;2024-02-23T12:00:43;22.63;;;18.17;;
11522;SDS011;70090;43.208;27.904;2024-02-23T12:03:11;19.80;;;16.20;;
11522;SDS011;70090;43.208;27.904;2024-02-23T12:05:38;18.37;;;15.97;;
11522;SDS011;70090;43.208;27.904;2024-02-23T12:08:07;20.27;;;17.13;;
11522;SDS011;70090;43.208;27.904;2024-02-23T12:10:34;18.70;;;15.20;;
11522;SDS011;70090;43.208;27.904;2024-02-23T12:13:02;19.67;;;15.87;;
11522;SDS011;70090;43.208;27.904;2024-02-23T12:15:30;18.63;;;16.40;;
11522;SDS011;70090;43.208;27.904;2024-02-23T12:17:57;17.77;;;15.10;;
11522;SDS011;70090;43.208;27.904;2024-02-23T12:20:25;17.40;;;15.50;;
11522;SDS011;70090;43.208;27.904;2024-02-23T12:22:54;17.20;;;15.33;;
11522;SDS011;70090;43.208;27.904;2024-02-23T12:25:23;20.57;;;16.97;;
11522;SDS011;70090;43.208;27.904;2024-02-23T12:27:53;17.73;;;15.50;;
11522;SDS011;70090;43.208;27.904;2024-02-23T12:30:22;18.43;;;16.13;;
11522;SDS011;70090;43.208;27.904;2024-02-23T12:32:51;20.57;;;17.03;;
11522;SDS011;70090;43.208;27.904;2024-02-23T12:35:29;23.73;;;17.00;;
11522;SDS011;70090;43.208;27.904;2024-02-23T12:37:56;17.90;;;15.77;;
11522;SDS011;70090;43.208;27.904;2024-02-23T12:40:24;18.20;;;16.13;;
11522;SDS011;70090;43.208;27.904;2024-02-23T12:42:51;18.93;;;15.73;;
11522;SDS011;70090;43.208;27.904;2024-02-23T12:45:19;19.03;;;15.63;;
11522;SDS011;70090;43.208;27.904;2024-02-23T12:47:46;18.57;;;16.77;;
11522;SDS011;70090;43.208;27.904;2024-02-23T12:50:13;18.90;;;16.90;;
11522;SDS011;70090;43.208;27.904;2024-02-23T12:52:40;21.67;;;17.57;;
11522;SDS011;70090;43.208;27.904;2024-02-23T12:55:07;23.30;;;18.33;;
11522;SDS011;70090;43.208;27.904;2024-02-23T12:57:36;21.67;;;18.57;;
11522;SDS011;70090;43.208;27.904;2024-02-23T13:00:03;23.47;;;18.73;;
11522;SDS011;70090;43.208;27.904;2024-02-23T13:02:31;20.60;;;17.37;;
11522;SDS011;70090;43.208;27.904;2024-02-23T13:04:58;19.93;;;17.87;;
11522;SDS011;70090;43.208;27.904;2024-02-23T13:07:27;22.47;;;18.57;;
11522;SDS011;70090;43.208;27.904;2024-02-23T13:09:54;21.30;;;18.47;;
11522;SDS011;70090;43.208;27.904;2024-02-23T13:12:21;22.13;;;19.40;;
11522;SDS011;70090;43.208;27.904;2024-02-23T13:14:51;23.70;;;19.87;;
11522;SDS011;70090;43.208;27.904;2024-02-23T13:17:18;20.17;;;17.87;;
11522;SDS011;70090;43.208;27.904;2024-02-23T13:19:45;21.60;;;18.97;;
11522;SDS011;70090;43.208;27.904;2024-02-23T13:22:12;22.40;;;18.30;;
11522;SDS011;70090;43.208;27.904;2024-02-23T13:24:39;21.53;;;17.90;;
11522;SDS011;70090;43.208;27.904;2024-02-23T13:27:06;21.27;;;18.23;;
11522;SDS011;70090;43.208;27.904;2024-02-23T13:29:33;20.43;;;17.73;;
11522;SDS011;70090;43.208;27.904;2024-02-23T13:32:01;20.30;;;17.80;;
11522;SDS011;70090;43.208;27.904;2024-02-23T13:34:28;22.80;;;17.57;;
11522;SDS011;70090;43.208;27.904;2024-02-23T13:36:55;20.27;;;18.13;;
11522;SDS011;70090;43.208;27.904;2024-02-23T13:39:22;23.23;;;18.70;;
11522;SDS011;70090;43.208;27.904;2024-02-23T13:41:50;19.93;;;17.40;;
11522;SDS011;70090;43.208;27.904;2024-02-23T13:44:17;20.20;;;17.63;;
11522;SDS011;70090;43.208;27.904;2024-02-23T13:46:44;21.03;;;16.60;;
11522;SDS011;70090;43.208;27.904;2024-02-23T13:49:12;21.90;;;17.53;;
11522;SDS011;70090;43.208;27.904;2024-02-23T13:51:39;19.57;;;16.40;;
11522;SDS011;70090;43.208;27.904;2024-02-23T13:54:06;18.17;;;16.07;;
11522;SDS011;70090;43.208;27.904;2024-02-23T13:56:33;21.70;;;16.70;;
11522;SDS011;70090;43.208;27.904;2024-02-23T13:59:00;18.80;;;16.87;;
11522;SDS011;70090;43.208;27.904;2024-02-23T14:01:27;22.23;;;17.37;;
11522;SDS011;70090;43.208;27.904;2024-02-23T14:03:54;21.23;;;16.57;;
11522;SDS011;70090;43.208;27.904;2024-02-23T14:06:23;19.33;;;17.17;;
11522;SDS011;70090;43.208;27.904;2024-02-23T14:08:50;19.03;;;15.53;;
11522;SDS011;70090;43.208;27.904;2024-02-23T14:11:17;16.77;;;14.93;;